createdAt,value
2019-04-04T00:01:47.797Z,95561.40
2019-04-04T00:04:17.521Z,95555.64
2019-04-04T00:06:47.666Z,95557.30
2019-04-04T00:09:17.764Z,95561.91
2019-04-04T00:11:47.912Z,95556.98
2019-04-04T00:14:18.153Z,95557.30
2019-04-04T00:16:48.748Z,95561.59
2019-04-04T00:19:19.489Z,95556.08
2019-04-04T00:21:49.598Z,95558.88
2019-04-04T00:24:19.728Z,95558.75
2019-04-04T00:26:49.837Z,95560.98
2019-04-04T00:29:19.979Z,95568.48
2019-04-04T00:31:50.306Z,95563.05
2019-04-04T00:34:20.537Z,95565.69
2019-04-04T00:36:50.770Z,95569.56
2019-04-04T00:39:21.258Z,95565.80
2019-04-04T00:41:51.416Z,95568.50
2019-04-04T00:44:23.121Z,95573.34
2019-04-04T00:46:55.102Z,95570.19
2019-04-04T00:49:25.280Z,95575.38
2019-04-04T00:51:55.498Z,95582.88
2019-04-04T00:54:25.685Z,95579.06
2019-04-04T00:56:55.843Z,95586.53
2019-04-04T00:59:26.043Z,95587.17
2019-04-04T01:01:56.990Z,95582.84
2019-04-04T01:04:30.746Z,95584.20
2019-04-04T01:06:59.568Z,95587.76
2019-04-04T01:09:29.929Z,95592.30
2019-04-04T01:12:00.381Z,95592.27
2019-04-04T01:14:30.559Z,95590.38
2019-04-04T01:17:02.032Z,95584.70
2019-04-04T01:19:32.549Z,95603.77
2019-04-04T01:22:02.685Z,95599.07
2019-04-04T01:24:32.880Z,95609.55
2019-04-04T01:27:04.164Z,95607.73
2019-04-04T01:29:35.220Z,95607.41
2019-04-04T01:32:05.370Z,95618.16
2019-04-04T01:34:37.775Z,95623.73
2019-04-04T01:37:08.963Z,95623.94
2019-04-04T01:39:39.038Z,95630.38
2019-04-04T01:42:09.156Z,95623.05
2019-04-04T01:44:40.142Z,95615.96
2019-04-04T01:47:11.323Z,95626.02
2019-04-04T01:49:41.411Z,95631.56
2019-04-04T01:52:11.504Z,95629.94
2019-04-04T01:54:41.617Z,95627.20
2019-04-04T01:57:12.289Z,95622.69
2019-04-04T01:59:43.931Z,95618.65
2019-04-04T02:02:14.137Z,95610.57
2019-04-04T02:04:44.223Z,95609.79
2019-04-04T02:07:14.294Z,95606.50
2019-04-04T02:09:44.422Z,95617.87
2019-04-04T02:12:14.547Z,95624.67
2019-04-04T02:14:44.672Z,95610.59
2019-04-04T02:17:15.000Z,95603.47
2019-04-04T02:19:45.370Z,95616.28
2019-04-04T02:22:15.428Z,95615.48
2019-04-04T02:24:45.496Z,95602.86
2019-04-04T02:27:15.568Z,95606.25
2019-04-04T02:29:46.192Z,95610.94
2019-04-04T02:32:17.621Z,95597.67
2019-04-04T02:34:48.931Z,95587.94
2019-04-04T02:37:21.202Z,95599.09
2019-04-04T02:39:50.787Z,95602.02
2019-04-04T02:42:22.245Z,95586.13
2019-04-04T02:44:52.616Z,95588.75
2019-04-04T02:47:23.025Z,95584.53
2019-04-04T02:49:53.093Z,95581.44
2019-04-04T02:52:23.171Z,95573.34
2019-04-04T02:54:57.166Z,95576.27
2019-04-04T02:57:25.031Z,95577.73
2019-04-04T02:59:55.079Z,95583.39
2019-04-04T03:02:25.192Z,95583.23
2019-04-04T03:04:55.522Z,95585.34
2019-04-04T03:07:29.850Z,95583.23
2019-04-04T03:09:57.362Z,95600.56
2019-04-04T03:12:27.455Z,95594.87
2019-04-04T03:14:57.528Z,95591.97
2019-04-04T03:17:31.485Z,95596.16
2019-04-04T03:19:59.724Z,95588.58
2019-04-04T03:22:29.812Z,95570.59
2019-04-04T03:25:00.347Z,95558.95
2019-04-04T03:27:30.432Z,95555.72
2019-04-04T03:30:00.530Z,95557.98
2019-04-04T03:32:31.563Z,95568.64
2019-04-04T03:35:01.723Z,95565.70
2019-04-04T03:37:31.963Z,95555.67
2019-04-04T03:40:02.011Z,95551.48
2019-04-04T03:42:32.244Z,95566.50
2019-04-04T03:45:02.296Z,95559.88
2019-04-04T03:47:32.372Z,95556.80
2019-04-04T03:50:02.472Z,95556.94
2019-04-04T03:52:32.568Z,95555.92
2019-04-04T03:55:03.710Z,95559.64
2019-04-04T03:57:33.761Z,95559.14
2019-04-04T04:00:07.044Z,95550.77
2019-04-04T04:02:36.223Z,95550.11
2019-04-04T04:05:18.408Z,95571.27
2019-04-04T04:07:49.085Z,95561.92
2019-04-04T04:10:19.181Z,95554.75
2019-04-04T04:12:49.229Z,95533.61
2019-04-04T04:15:19.268Z,95537.32
2019-04-04T04:17:49.334Z,95546.50
2019-04-04T04:20:20.478Z,95555.33
2019-04-04T04:22:51.524Z,95559.20
2019-04-04T04:25:21.702Z,95560.66
2019-04-04T04:27:51.797Z,95545.70
2019-04-04T04:30:22.256Z,95536.72
2019-04-04T04:32:53.112Z,95526.65
2019-04-04T04:35:24.631Z,95520.82
2019-04-04T04:37:54.678Z,95534.32
2019-04-04T04:40:24.775Z,95520.85
2019-04-04T04:42:54.826Z,95516.28
2019-04-04T04:45:24.895Z,95511.50
2019-04-04T04:47:57.077Z,95516.84
2019-04-04T04:50:26.742Z,95506.53
2019-04-04T04:52:56.853Z,95504.44
2019-04-04T04:55:28.220Z,95507.19
2019-04-04T04:57:58.786Z,95505.88
2019-04-04T05:00:29.157Z,95505.25
2019-04-04T05:03:00.653Z,95524.47
2019-04-04T05:05:31.934Z,95513.33
2019-04-04T05:08:02.089Z,95509.91
2019-04-04T05:10:32.415Z,95504.58
2019-04-04T05:13:02.638Z,95493.42
2019-04-04T05:15:33.226Z,95501.67
2019-04-04T05:18:03.572Z,95497.16
2019-04-04T05:20:33.625Z,95490.84
2019-04-04T05:23:03.727Z,95493.73
2019-04-04T05:25:33.844Z,95492.77
2019-04-04T05:28:06.187Z,95492.78
2019-04-04T05:30:36.233Z,95481.31
2019-04-04T05:33:06.374Z,95477.67
2019-04-04T05:35:37.861Z,95470.36
2019-04-04T05:38:08.126Z,95469.55
2019-04-04T05:40:38.283Z,95474.75
2019-04-04T05:43:08.728Z,95475.41
2019-04-04T05:45:38.876Z,95475.98
2019-04-04T05:48:08.918Z,95475.77
2019-04-04T05:50:38.999Z,95475.23
2019-04-04T05:53:09.093Z,95481.58
2019-04-04T05:55:39.811Z,95480.95
2019-04-04T05:58:42.894Z,95475.48
2019-04-04T06:01:14.396Z,95477.84
2019-04-04T06:03:46.994Z,95462.30
2019-04-04T06:06:16.313Z,95462.19
2019-04-04T06:08:46.527Z,95469.10
2019-04-04T06:11:16.620Z,95474.03
2019-04-04T06:13:46.696Z,95477.41
2019-04-04T06:16:16.774Z,95461.77
2019-04-04T06:18:49.156Z,95458.48
2019-04-04T06:21:19.248Z,95460.55
2019-04-04T06:23:49.401Z,95453.80
2019-04-04T06:26:19.455Z,95453.16
2019-04-04T06:28:49.565Z,95449.86
2019-04-04T06:31:19.726Z,95447.07
2019-04-04T06:33:49.914Z,95433.84
2019-04-04T06:36:20.136Z,95434.75
2019-04-04T06:38:50.257Z,95436.55
2019-04-04T06:41:22.300Z,95437.33
2019-04-04T06:43:52.391Z,95442.33
2019-04-04T06:46:22.935Z,95444.84
2019-04-04T06:48:53.099Z,95442.84
2019-04-04T06:51:23.183Z,95432.02
2019-04-04T06:53:54.457Z,95428.48
2019-04-04T06:56:24.575Z,95423.39
2019-04-04T06:58:54.703Z,95429.24
2019-04-04T07:01:25.444Z,95419.98
2019-04-04T07:03:59.077Z,95414.97
2019-04-04T07:06:27.356Z,95409.99
2019-04-04T07:08:58.186Z,95403.87
2019-04-04T07:11:28.607Z,95409.61
2019-04-04T07:13:59.783Z,95399.66
2019-04-04T07:16:29.924Z,95391.61
2019-04-04T07:19:00.307Z,95389.42
2019-04-04T07:21:30.432Z,95404.08
2019-04-04T07:24:00.521Z,95398.72
2019-04-04T07:26:32.181Z,95393.19
2019-04-04T07:29:02.711Z,95387.66
2019-04-04T07:31:33.513Z,95397.43
2019-04-04T07:34:05.938Z,95393.12
2019-04-04T07:36:36.028Z,95382.49
2019-04-04T07:39:07.358Z,95384.83
2019-04-04T07:41:40.028Z,95383.11
2019-04-04T07:44:09.238Z,95377.66
2019-04-04T07:46:41.309Z,95373.27
2019-04-04T07:49:11.556Z,95365.98
2019-04-04T07:51:42.953Z,95367.65
2019-04-04T07:54:13.419Z,95355.73
2019-04-04T07:56:46.864Z,95361.67
2019-04-04T07:59:15.342Z,95354.61
2019-04-04T08:01:51.070Z,95347.84
2019-04-04T08:04:17.611Z,95341.69
2019-04-04T08:06:47.786Z,95337.47
2019-04-04T08:09:18.007Z,95339.05
2019-04-04T08:11:48.081Z,95332.93
2019-04-04T08:14:18.319Z,95326.03
2019-04-04T08:16:48.386Z,95331.12
2019-04-04T08:19:18.559Z,95329.76
2019-04-04T08:21:48.658Z,95330.02
2019-04-04T08:24:18.867Z,95327.38
2019-04-04T08:26:50.141Z,95320.18
2019-04-04T08:29:20.216Z,95311.45
2019-04-04T08:31:50.323Z,95318.58
2019-04-04T08:34:20.396Z,95307.03
2019-04-04T08:36:50.473Z,95306.46
2019-04-04T08:39:20.544Z,95307.88
2019-04-04T08:41:52.496Z,95306.80
2019-04-04T08:44:23.680Z,95315.20
2019-04-04T08:46:55.723Z,95310.59
2019-04-04T08:49:25.940Z,95296.42
2019-04-04T08:51:56.059Z,95313.05
2019-04-04T08:54:26.440Z,95311.16
2019-04-04T08:56:56.845Z,95300.27
2019-04-04T08:59:26.931Z,95302.51
2019-04-04T09:01:56.994Z,95292.51
2019-04-04T09:04:27.377Z,95283.55
2019-04-04T09:06:58.118Z,95292.40
2019-04-04T09:09:28.239Z,95283.10
2019-04-04T09:11:58.308Z,95271.77
2019-04-04T09:14:28.438Z,95272.36
2019-04-04T09:16:58.510Z,95259.94
2019-04-04T09:19:29.695Z,95269.03
2019-04-04T09:21:59.778Z,95271.77
2019-04-04T09:24:29.881Z,95273.45
2019-04-04T09:26:59.969Z,95276.27
2019-04-04T09:29:30.076Z,95281.98
2019-04-04T09:32:00.302Z,95269.59
2019-04-04T09:34:30.373Z,95274.95
2019-04-04T09:37:00.454Z,95264.06
2019-04-04T09:39:30.617Z,95273.74
2019-04-04T09:42:01.310Z,95277.80
2019-04-04T09:44:31.386Z,95273.00
2019-04-04T09:47:05.666Z,95266.03
2019-04-04T09:49:33.522Z,95272.41
2019-04-04T09:52:03.921Z,95271.72
2019-04-04T09:54:34.535Z,95269.12
2019-04-04T09:57:04.638Z,95263.20
2019-04-04T09:59:34.919Z,95259.73
2019-04-04T10:02:05.002Z,95253.33
2019-04-04T10:04:35.454Z,95267.82
2019-04-04T10:07:05.639Z,95263.70
2019-04-04T10:09:35.995Z,95248.78
2019-04-04T10:12:06.121Z,95253.19
2019-04-04T10:14:36.540Z,95244.55
2019-04-04T10:17:06.681Z,95237.52
2019-04-04T10:19:37.066Z,95235.55
2019-04-04T10:22:07.151Z,95241.42
2019-04-04T10:24:37.502Z,95235.42
2019-04-04T10:27:07.727Z,95227.85
2019-04-04T10:29:37.859Z,95234.84
2019-04-04T10:32:07.930Z,95235.96
2019-04-04T10:34:38.151Z,95240.33
2019-04-04T10:37:08.284Z,95233.69
2019-04-04T10:39:38.411Z,95236.69
2019-04-04T10:42:08.756Z,95233.34
2019-04-04T10:44:38.836Z,95235.42
2019-04-04T10:47:09.926Z,95234.39
2019-04-04T10:49:40.025Z,95229.45
2019-04-04T10:52:10.205Z,95226.09
2019-04-04T10:54:40.378Z,95232.22
2019-04-04T10:57:10.551Z,95238.20
2019-04-04T10:59:40.621Z,95237.50
2019-04-04T11:02:10.755Z,95243.13
2019-04-04T11:04:40.827Z,95238.40
2019-04-04T11:07:11.208Z,95234.49
2019-04-04T11:09:42.423Z,95234.75
2019-04-04T11:12:12.606Z,95228.98
2019-04-04T11:14:42.828Z,95228.83
2019-04-04T11:17:13.874Z,95222.40
2019-04-04T11:19:44.089Z,95223.41
2019-04-04T11:22:14.169Z,95222.49
2019-04-04T11:24:44.564Z,95221.80
2019-04-04T11:27:17.337Z,95223.04
2019-04-04T11:29:46.458Z,95214.42
2019-04-04T11:32:16.926Z,95212.75
2019-04-04T11:34:53.028Z,95208.23
2019-04-04T11:37:19.227Z,95206.22
2019-04-04T11:39:54.751Z,95207.16
2019-04-04T11:42:21.410Z,95210.00
2019-04-04T11:44:51.528Z,95213.16
2019-04-04T11:47:21.635Z,95209.08
2019-04-04T11:49:51.991Z,95212.30
2019-04-04T11:52:23.320Z,95207.66
2019-04-04T11:54:59.005Z,95201.09
2019-04-04T11:57:29.160Z,95190.89
2019-04-04T11:59:59.782Z,95193.13
2019-04-04T12:02:32.767Z,95192.14
2019-04-04T12:05:04.193Z,95186.25
2019-04-04T12:07:34.283Z,95191.04
2019-04-04T12:10:07.788Z,95196.47
2019-04-04T12:12:36.693Z,95197.93
2019-04-04T12:15:06.992Z,95195.24
2019-04-04T12:17:37.159Z,95191.97
